CheckWX is a tool to help pilots better visualize weather data.  It is not intended as a substitute for an official pre-flight weather briefing.

04:50:23 UTC

KP68 METAR
Eureka Airport
Nevada, USA
Current

57 mins ago

KP68 180353Z AUTO VRB03KT 19/01 A3002 RMK AO1 SLP078 T01890006
Observed
Aug-18 @ 03:53 UTC
Wind
  • Variable at 3 KTS
Visibility
Temperature
19°C / 66°F
Dewpoint
C / 34°F
Humidity
30%
Altimeter
30.02" Hg
Pressure
1016.62 hPa
Previous

2 hours ago

KP68 180253Z AUTO 03004KT 22/02 A2999 RMK AO1 SLP072 T02170022 53007
Observed
Aug-18 @ 02:53 UTC
Wind
  • 030° at 4 KTS
Visibility
Temperature
22°C / 72°F
Dewpoint
C / 36°F
Humidity
27%
Altimeter
29.99" Hg
Pressure
1015.62 hPa
Previous

3 hours ago

KP68 180153Z AUTO 32008KT 29/M04 A2996 RMK AO1 SLP059 T02941039
Observed
Aug-18 @ 01:53 UTC
Wind
  • 320° at 8 KTS
Visibility
Temperature
29°C / 84°F
Dewpoint
-4°C / 25°F
Humidity
11%
Altimeter
29.96" Hg
Pressure
1014.52 hPa